sensor_id;sensor_type;location;lat;lon;timestamp;P1;durP1;ratioP1;P2;durP2;ratioP2
12826;SDS011;66927;48.812;9.118;2023-03-03T17:38:17;38.10;;;25.53;;
12826;SDS011;66927;48.812;9.118;2023-03-03T17:41:07;36.30;;;24.57;;
12826;SDS011;66927;48.812;9.118;2023-03-03T17:49:12;37.53;;;25.63;;
12826;SDS011;66927;48.812;9.118;2023-03-03T18:00:26;33.00;;;23.43;;
12826;SDS011;66927;48.812;9.118;2023-03-03T18:16:13;40.60;;;25.70;;
12826;SDS011;66927;48.812;9.118;2023-03-03T18:21:48;38.90;;;27.20;;
12826;SDS011;66927;48.812;9.118;2023-03-03T18:24:38;41.43;;;25.70;;
12826;SDS011;66927;48.812;9.118;2023-03-03T18:30:17;40.33;;;28.23;;
12826;SDS011;66927;48.812;9.118;2023-03-03T18:37:48;42.27;;;29.17;;
12826;SDS011;66927;48.812;9.118;2023-03-03T18:40:18;41.70;;;29.33;;
12826;SDS011;66927;48.812;9.118;2023-03-03T18:42:56;41.30;;;29.90;;
12826;SDS011;66927;48.812;9.118;2023-03-03T18:55:47;36.87;;;26.50;;
12826;SDS011;66927;48.812;9.118;2023-03-03T19:00:45;43.50;;;27.93;;
12826;SDS011;66927;48.812;9.118;2023-03-03T19:03:33;43.03;;;27.13;;
12826;SDS011;66927;48.812;9.118;2023-03-03T19:06:53;37.20;;;26.33;;
12826;SDS011;66927;48.812;9.118;2023-03-03T19:10:40;39.70;;;28.07;;
12826;SDS011;66927;48.812;9.118;2023-03-03T19:15:51;43.77;;;26.57;;
12826;SDS011;66927;48.812;9.118;2023-03-03T19:18:12;42.63;;;28.27;;
12826;SDS011;66927;48.812;9.118;2023-03-03T19:20:47;45.20;;;27.60;;
12826;SDS011;66927;48.812;9.118;2023-03-03T19:23:25;42.20;;;27.47;;
12826;SDS011;66927;48.812;9.118;2023-03-03T19:31:51;41.03;;;28.10;;
12826;SDS011;66927;48.812;9.118;2023-03-03T19:37:27;35.77;;;27.10;;
12826;SDS011;66927;48.812;9.118;2023-03-03T19:43:01;70.63;;;42.57;;
12826;SDS011;66927;48.812;9.118;2023-03-03T19:48:25;67.93;;;39.37;;
12826;SDS011;66927;48.812;9.118;2023-03-03T19:53:33;73.53;;;39.53;;
12826;SDS011;66927;48.812;9.118;2023-03-03T20:01:26;50.60;;;31.83;;
12826;SDS011;66927;48.812;9.118;2023-03-03T20:06:55;53.30;;;31.57;;
12826;SDS011;66927;48.812;9.118;2023-03-03T20:12:49;49.40;;;30.20;;
12826;SDS011;66927;48.812;9.118;2023-03-03T20:16:13;57.13;;;32.30;;
12826;SDS011;66927;48.812;9.118;2023-03-03T20:18:22;58.90;;;34.13;;
12826;SDS011;66927;48.812;9.118;2023-03-03T20:24:00;43.63;;;27.30;;
12826;SDS011;66927;48.812;9.118;2023-03-03T20:26:48;40.73;;;26.43;;
12826;SDS011;66927;48.812;9.118;2023-03-03T20:37:34;35.80;;;24.07;;
12826;SDS011;66927;48.812;9.118;2023-03-03T20:56:23;38.10;;;25.73;;
12826;SDS011;66927;48.812;9.118;2023-03-03T21:04:38;36.80;;;23.80;;
12826;SDS011;66927;48.812;9.118;2023-03-03T21:07:04;34.67;;;24.30;;
12826;SDS011;66927;48.812;9.118;2023-03-03T21:09:33;34.23;;;24.13;;
12826;SDS011;66927;48.812;9.118;2023-03-03T21:12:08;38.30;;;24.50;;
12826;SDS011;66927;48.812;9.118;2023-03-03T21:15:06;34.80;;;24.97;;
12826;SDS011;66927;48.812;9.118;2023-03-03T21:17:45;33.80;;;23.50;;
12826;SDS011;66927;48.812;9.118;2023-03-03T21:22:56;33.87;;;24.33;;
12826;SDS011;66927;48.812;9.118;2023-03-03T21:28:57;35.57;;;23.87;;
12826;SDS011;66927;48.812;9.118;2023-03-03T21:31:07;33.60;;;23.13;;
12826;SDS011;66927;48.812;9.118;2023-03-03T21:36:07;37.77;;;25.43;;
12826;SDS011;66927;48.812;9.118;2023-03-03T21:38:34;36.10;;;24.47;;
12826;SDS011;66927;48.812;9.118;2023-03-03T21:41:02;36.00;;;24.87;;
12826;SDS011;66927;48.812;9.118;2023-03-03T21:43:32;37.43;;;24.40;;
12826;SDS011;66927;48.812;9.118;2023-03-03T21:46:00;82.90;;;53.17;;
12826;SDS011;66927;48.812;9.118;2023-03-03T21:48:26;100.50;;;63.80;;
12826;SDS011;66927;48.812;9.118;2023-03-03T21:50:51;51.40;;;33.90;;
12826;SDS011;66927;48.812;9.118;2023-03-03T21:53:17;47.33;;;30.33;;
12826;SDS011;66927;48.812;9.118;2023-03-03T21:55:44;58.43;;;36.33;;
12826;SDS011;66927;48.812;9.118;2023-03-03T21:58:16;48.83;;;31.80;;
12826;SDS011;66927;48.812;9.118;2023-03-03T22:00:42;38.07;;;27.37;;
12826;SDS011;66927;48.812;9.118;2023-03-03T22:03:08;38.53;;;26.63;;
12826;SDS011;66927;48.812;9.118;2023-03-03T22:05:35;41.83;;;27.67;;
12826;SDS011;66927;48.812;9.118;2023-03-03T22:08:01;38.70;;;26.17;;
12826;SDS011;66927;48.812;9.118;2023-03-03T22:10:26;38.40;;;24.73;;
12826;SDS011;66927;48.812;9.118;2023-03-03T22:12:52;40.97;;;27.60;;
12826;SDS011;66927;48.812;9.118;2023-03-03T22:15:18;33.87;;;23.77;;
12826;SDS011;66927;48.812;9.118;2023-03-03T22:17:44;36.97;;;23.37;;
12826;SDS011;66927;48.812;9.118;2023-03-03T22:20:10;34.17;;;23.30;;
12826;SDS011;66927;48.812;9.118;2023-03-03T22:22:39;35.83;;;23.40;;
12826;SDS011;66927;48.812;9.118;2023-03-03T22:25:06;36.50;;;23.47;;
12826;SDS011;66927;48.812;9.118;2023-03-03T22:27:32;34.57;;;23.57;;
12826;SDS011;66927;48.812;9.118;2023-03-03T22:29:58;34.13;;;23.00;;
12826;SDS011;66927;48.812;9.118;2023-03-03T22:32:24;38.23;;;25.13;;
12826;SDS011;66927;48.812;9.118;2023-03-03T22:34:50;32.53;;;22.57;;
12826;SDS011;66927;48.812;9.118;2023-03-03T22:37:16;37.60;;;24.43;;
12826;SDS011;66927;48.812;9.118;2023-03-03T22:39:42;32.97;;;21.57;;
12826;SDS011;66927;48.812;9.118;2023-03-03T22:42:08;37.30;;;23.67;;
12826;SDS011;66927;48.812;9.118;2023-03-03T22:44:35;32.53;;;23.67;;
12826;SDS011;66927;48.812;9.118;2023-03-03T22:47:01;34.17;;;22.90;;
12826;SDS011;66927;48.812;9.118;2023-03-03T22:49:27;32.97;;;23.00;;
12826;SDS011;66927;48.812;9.118;2023-03-03T22:51:52;30.77;;;21.43;;
12826;SDS011;66927;48.812;9.118;2023-03-03T22:54:18;35.27;;;22.23;;
12826;SDS011;66927;48.812;9.118;2023-03-03T22:56:44;35.50;;;22.60;;
12826;SDS011;66927;48.812;9.118;2023-03-03T22:59:09;33.27;;;21.87;;
12826;SDS011;66927;48.812;9.118;2023-03-03T23:01:35;34.07;;;21.53;;
12826;SDS011;66927;48.812;9.118;2023-03-03T23:04:00;34.77;;;22.73;;
12826;SDS011;66927;48.812;9.118;2023-03-03T23:06:26;35.00;;;22.57;;
12826;SDS011;66927;48.812;9.118;2023-03-03T23:08:52;35.37;;;22.43;;
12826;SDS011;66927;48.812;9.118;2023-03-03T23:11:17;35.80;;;23.50;;
12826;SDS011;66927;48.812;9.118;2023-03-03T23:13:43;33.90;;;22.43;;
12826;SDS011;66927;48.812;9.118;2023-03-03T23:16:08;36.57;;;24.10;;
12826;SDS011;66927;48.812;9.118;2023-03-03T23:18:34;34.93;;;22.07;;
12826;SDS011;66927;48.812;9.118;2023-03-03T23:20:59;38.73;;;24.13;;
12826;SDS011;66927;48.812;9.118;2023-03-03T23:23:25;35.83;;;24.13;;
12826;SDS011;66927;48.812;9.118;2023-03-03T23:25:51;35.10;;;23.63;;
12826;SDS011;66927;48.812;9.118;2023-03-03T23:28:16;38.17;;;24.20;;
12826;SDS011;66927;48.812;9.118;2023-03-03T23:30:43;35.40;;;23.37;;
12826;SDS011;66927;48.812;9.118;2023-03-03T23:33:09;40.33;;;23.87;;
12826;SDS011;66927;48.812;9.118;2023-03-03T23:35:34;37.43;;;24.97;;
12826;SDS011;66927;48.812;9.118;2023-03-03T23:38:00;35.07;;;24.63;;
12826;SDS011;66927;48.812;9.118;2023-03-03T23:40:26;44.70;;;25.63;;
12826;SDS011;66927;48.812;9.118;2023-03-03T23:42:51;35.93;;;24.10;;
12826;SDS011;66927;48.812;9.118;2023-03-03T23:45:17;36.67;;;24.27;;
12826;SDS011;66927;48.812;9.118;2023-03-03T23:47:42;34.73;;;22.83;;
12826;SDS011;66927;48.812;9.118;2023-03-03T23:50:09;37.37;;;23.70;;
12826;SDS011;66927;48.812;9.118;2023-03-03T23:52:36;35.57;;;23.33;;
12826;SDS011;66927;48.812;9.118;2023-03-03T23:55:03;34.53;;;22.50;;
12826;SDS011;66927;48.812;9.118;2023-03-03T23:57:29;34.30;;;22.83;;
12826;SDS011;66927;48.812;9.118;2023-03-03T23:59:55;35.50;;;23.10;;
